Suez Rajan — V7WJ9 — position and weather

sailwx.info

Track history (hours):
 
Tides and Currents Weather Stations Pressure Air Temp Water Temp Dewpoint Dewpoint Depression Visibility Wind Speed Wind Dir Waves Ship Positions

Suez Rajan

Last reported at 2017-Dec-25 01:26 UTC. Time now 2018-Jan-23 13:47 UTC.
Position N 01°17' E 103°22'.
Warning: this ship's position is 29 days out of date.

Length 274 m; draft 9.1 m.

Type: Tanker. MMSI: 538004319.

Date/timePositionNaut miles runAvg speedWind from/ knotsBaromVisibWave heightAir tempDewpointWater temp
2017-Dec-25 01:26N 01°17' E 103°22'614.3
2017-Dec-25 01:00N 01°13' E 103°28'714.3
2017-Dec-25 00:30N 01°12' E 103°35'713.9
2017-Dec-25 00:00N 01°10' E 103°41'611.6
2017-Dec-24 23:30N 01°10' E 103°47'714.7
2017-Dec-24 23:00N 01°13' E 103°54'714.0
2017-Dec-24 22:30N 01°16' E 104°00'5 9.7
2017-Dec-24 21:59N 01°18' E 104°05'0 0.4
2017-Dec-24 21:15N 01°18' E 104°05'0 0.0
2017-Dec-24 20:45N 01°18' E 104°05'0 0.0
2017-Dec-24 14:30N 01°18' E 104°05'0 0.2
2017-Dec-24 13:36N 01°18' E 104°05'0 0.1
2017-Dec-24 13:27N 01°18' E 104°05'0 0.2
2017-Dec-24 12:51N 01°18' E 104°05'0 0.0
2017-Dec-24 12:15N 01°18' E 104°05'0 0.0
2017-Dec-24 11:45N 01°18' E 104°05'0 0.0
2017-Dec-24 11:24N 01°18' E 104°05'0 0.0
2017-Dec-24 07:57N 01°18' E 104°05'0 0.0
2017-Dec-24 07:27N 01°18' E 104°05'0 0.2
2017-Dec-24 06:48N 01°18' E 104°05'0 0.0
2017-Dec-24 00:15N 01°18' E 104°05'0 0.2
2017-Dec-23 23:48N 01°18' E 104°05'1 3.0
2017-Dec-23 23:20N 01°17' E 104°06'1 3.4
2017-Dec-23 22:57N 01°17' E 104°07'  
2017-Dec-17 06:49N 23°45' E 122°55'411.8
2017-Dec-17 06:30N 23°48' E 122°57'612.0
2017-Dec-17 06:00N 23°54' E 122°60'611.9
2017-Dec-17 05:30N 23°59' E 123°03'611.8
2017-Dec-17 05:00N 24°04' E 123°06'612.4
2017-Dec-17 04:30N 24°10' E 123°09'612.6
2017-Dec-17 04:00N 24°15' E 123°12'612.5
2017-Dec-17 03:30N 24°21' E 123°15'612.0
2017-Dec-17 03:00N 24°26' E 123°18'611.7
2017-Dec-17 02:30N 24°32' E 123°21'611.6
2017-Dec-17 02:00N 24°37' E 123°24'511.0
2017-Dec-17 01:30N 24°42' E 123°26'4 9.0
2017-Dec-17 01:00N 24°46' E 123°28'4 9.0
2017-Dec-17 00:30N 24°50' E 123°30'4 8.9
2017-Dec-17 00:00N 24°54' E 123°33'4 9.0
2017-Dec-16 23:30N 24°58' E 123°35'  
Track history (hours):
 
Tides and Currents Weather Stations Pressure Air Temp Water Temp Dewpoint Dewpoint Depression Visibility Wind Speed Wind Dir Waves Ship Positions

Suez Rajan

Last reported at 2017-Dec-25 01:26 UTC. Time now 2018-Jan-23 13:47 UTC.
Position N 01°17' E 103°22'.
Warning: this ship's position is 29 days out of date.

Length 274 m; draft 9.1 m.

Type: Tanker. MMSI: 538004319.

Date/timePositionNaut miles runAvg speedWind from/ knotsBaromVisibWave heightAir tempDewpointWater temp
2017-Dec-25 01:26N 01°17' E 103°22'614.3
2017-Dec-25 01:00N 01°13' E 103°28'714.3
2017-Dec-25 00:30N 01°12' E 103°35'713.9
2017-Dec-25 00:00N 01°10' E 103°41'611.6
2017-Dec-24 23:30N 01°10' E 103°47'714.7
2017-Dec-24 23:00N 01°13' E 103°54'714.0
2017-Dec-24 22:30N 01°16' E 104°00'5 9.7
2017-Dec-24 21:59N 01°18' E 104°05'0 0.4
2017-Dec-24 21:15N 01°18' E 104°05'0 0.0
2017-Dec-24 20:45N 01°18' E 104°05'0 0.0
2017-Dec-24 14:30N 01°18' E 104°05'0 0.2
2017-Dec-24 13:36N 01°18' E 104°05'0 0.1
2017-Dec-24 13:27N 01°18' E 104°05'0 0.2
2017-Dec-24 12:51N 01°18' E 104°05'0 0.0
2017-Dec-24 12:15N 01°18' E 104°05'0 0.0
2017-Dec-24 11:45N 01°18' E 104°05'0 0.0
2017-Dec-24 11:24N 01°18' E 104°05'0 0.0
2017-Dec-24 07:57N 01°18' E 104°05'0 0.0
2017-Dec-24 07:27N 01°18' E 104°05'0 0.2
2017-Dec-24 06:48N 01°18' E 104°05'0 0.0
2017-Dec-24 00:15N 01°18' E 104°05'0 0.2
2017-Dec-23 23:48N 01°18' E 104°05'1 3.0
2017-Dec-23 23:20N 01°17' E 104°06'1 3.4
2017-Dec-23 22:57N 01°17' E 104°07'  
2017-Dec-17 06:49N 23°45' E 122°55'411.8
2017-Dec-17 06:30N 23°48' E 122°57'612.0
2017-Dec-17 06:00N 23°54' E 122°60'611.9
2017-Dec-17 05:30N 23°59' E 123°03'611.8
2017-Dec-17 05:00N 24°04' E 123°06'612.4
2017-Dec-17 04:30N 24°10' E 123°09'612.6
2017-Dec-17 04:00N 24°15' E 123°12'612.5
2017-Dec-17 03:30N 24°21' E 123°15'612.0
2017-Dec-17 03:00N 24°26' E 123°18'611.7
2017-Dec-17 02:30N 24°32' E 123°21'611.6
2017-Dec-17 02:00N 24°37' E 123°24'511.0
2017-Dec-17 01:30N 24°42' E 123°26'4 9.0
2017-Dec-17 01:00N 24°46' E 123°28'4 9.0
2017-Dec-17 00:30N 24°50' E 123°30'4 8.9
2017-Dec-17 00:00N 24°54' E 123°33'4 9.0
2017-Dec-16 23:30N 24°58' E 123°35'  

Dump ship's entire track history